sensor_id;sensor_type;location;lat;lon;timestamp;P1;durP1;ratioP1;P2;durP2;ratioP2
31584;SDS011;18191;51.288;12.390;2024-01-06T00:01:18;10.60;;;2.23;;
31584;SDS011;18191;51.288;12.390;2024-01-06T00:06:11;7.43;;;2.50;;
31584;SDS011;18191;51.288;12.390;2024-01-06T00:11:02;18.77;;;3.10;;
31584;SDS011;18191;51.288;12.390;2024-01-06T00:20:44;8.47;;;2.73;;
31584;SDS011;18191;51.288;12.390;2024-01-06T00:25:34;11.57;;;2.87;;
31584;SDS011;18191;51.288;12.390;2024-01-06T00:30:24;4.07;;;2.00;;
31584;SDS011;18191;51.288;12.390;2024-01-06T00:35:15;5.50;;;2.60;;
31584;SDS011;18191;51.288;12.390;2024-01-06T00:40:05;6.03;;;2.97;;
31584;SDS011;18191;51.288;12.390;2024-01-06T00:44:56;4.18;;;2.33;;
31584;SDS011;18191;51.288;12.390;2024-01-06T00:49:46;10.80;;;2.43;;
31584;SDS011;18191;51.288;12.390;2024-01-06T00:54:36;12.03;;;2.80;;
31584;SDS011;18191;51.288;12.390;2024-01-06T00:59:26;10.13;;;2.37;;
31584;SDS011;18191;51.288;12.390;2024-01-06T01:04:17;12.27;;;3.03;;
31584;SDS011;18191;51.288;12.390;2024-01-06T01:09:07;6.20;;;3.10;;
31584;SDS011;18191;51.288;12.390;2024-01-06T01:14:00;6.97;;;2.97;;
31584;SDS011;18191;51.288;12.390;2024-01-06T01:18:50;14.00;;;4.90;;
31584;SDS011;18191;51.288;12.390;2024-01-06T01:23:40;8.77;;;3.03;;
31584;SDS011;18191;51.288;12.390;2024-01-06T01:28:31;7.43;;;3.00;;
31584;SDS011;18191;51.288;12.390;2024-01-06T01:33:21;9.57;;;3.85;;
31584;SDS011;18191;51.288;12.390;2024-01-06T01:38:11;10.13;;;3.35;;
31584;SDS011;18191;51.288;12.390;2024-01-06T01:43:01;7.57;;;3.00;;
31584;SDS011;18191;51.288;12.390;2024-01-06T01:47:52;12.73;;;3.87;;
31584;SDS011;18191;51.288;12.390;2024-01-06T01:52:42;6.82;;;3.28;;
31584;SDS011;18191;51.288;12.390;2024-01-06T01:57:32;7.57;;;3.27;;
31584;SDS011;18191;51.288;12.390;2024-01-06T02:02:23;7.37;;;3.20;;
31584;SDS011;18191;51.288;12.390;2024-01-06T02:07:13;11.47;;;3.13;;
31584;SDS011;18191;51.288;12.390;2024-01-06T02:12:03;6.33;;;2.80;;
31584;SDS011;18191;51.288;12.390;2024-01-06T02:16:54;14.20;;;2.90;;
31584;SDS011;18191;51.288;12.390;2024-01-06T02:21:48;13.37;;;2.67;;
31584;SDS011;18191;51.288;12.390;2024-01-06T02:26:39;12.30;;;2.97;;
31584;SDS011;18191;51.288;12.390;2024-01-06T02:31:30;4.17;;;2.27;;
31584;SDS011;18191;51.288;12.390;2024-01-06T02:36:20;13.03;;;2.67;;
31584;SDS011;18191;51.288;12.390;2024-01-06T02:41:10;10.05;;;3.58;;
31584;SDS011;18191;51.288;12.390;2024-01-06T02:46:01;7.33;;;3.60;;
31584;SDS011;18191;51.288;12.390;2024-01-06T02:50:51;11.77;;;3.15;;
31584;SDS011;18191;51.288;12.390;2024-01-06T02:55:41;7.93;;;3.60;;
31584;SDS011;18191;51.288;12.390;2024-01-06T03:00:31;11.53;;;3.00;;
31584;SDS011;18191;51.288;12.390;2024-01-06T03:05:22;14.48;;;3.83;;
31584;SDS011;18191;51.288;12.390;2024-01-06T03:10:12;10.63;;;2.73;;
31584;SDS011;18191;51.288;12.390;2024-01-06T03:15:02;8.57;;;3.10;;
31584;SDS011;18191;51.288;12.390;2024-01-06T03:19:53;6.97;;;3.33;;
31584;SDS011;18191;51.288;12.390;2024-01-06T03:24:43;15.97;;;3.63;;
31584;SDS011;18191;51.288;12.390;2024-01-06T03:29:33;9.38;;;3.30;;
31584;SDS011;18191;51.288;12.390;2024-01-06T03:34:23;10.03;;;3.77;;
31584;SDS011;18191;51.288;12.390;2024-01-06T03:39:14;19.02;;;3.70;;
31584;SDS011;18191;51.288;12.390;2024-01-06T03:44:05;10.90;;;3.20;;
31584;SDS011;18191;51.288;12.390;2024-01-06T03:48:55;14.90;;;3.20;;
31584;SDS011;18191;51.288;12.390;2024-01-06T03:53:45;5.70;;;3.23;;
31584;SDS011;18191;51.288;12.390;2024-01-06T03:58:35;9.83;;;2.83;;
31584;SDS011;18191;51.288;12.390;2024-01-06T04:03:26;7.10;;;2.83;;
31584;SDS011;18191;51.288;12.390;2024-01-06T04:08:17;13.83;;;3.40;;
31584;SDS011;18191;51.288;12.390;2024-01-06T04:13:07;9.60;;;3.35;;
31584;SDS011;18191;51.288;12.390;2024-01-06T04:18:01;7.27;;;3.67;;
31584;SDS011;18191;51.288;12.390;2024-01-06T04:22:53;20.87;;;6.03;;
31584;SDS011;18191;51.288;12.390;2024-01-06T04:27:43;30.23;;;9.17;;
31584;SDS011;18191;51.288;12.390;2024-01-06T04:32:35;27.83;;;8.47;;
31584;SDS011;18191;51.288;12.390;2024-01-06T04:37:25;13.32;;;5.07;;
31584;SDS011;18191;51.288;12.390;2024-01-06T04:42:15;31.73;;;5.57;;
31584;SDS011;18191;51.288;12.390;2024-01-06T04:47:06;10.80;;;4.40;;
31584;SDS011;18191;51.288;12.390;2024-01-06T04:51:56;9.13;;;4.13;;
31584;SDS011;18191;51.288;12.390;2024-01-06T04:56:46;14.00;;;4.30;;
31584;SDS011;18191;51.288;12.390;2024-01-06T05:01:37;17.50;;;4.90;;
31584;SDS011;18191;51.288;12.390;2024-01-06T05:06:28;16.10;;;4.17;;
31584;SDS011;18191;51.288;12.390;2024-01-06T05:11:18;10.02;;;3.85;;
31584;SDS011;18191;51.288;12.390;2024-01-06T05:16:08;18.75;;;4.32;;
31584;SDS011;18191;51.288;12.390;2024-01-06T05:20:59;10.87;;;4.07;;
31584;SDS011;18191;51.288;12.390;2024-01-06T05:25:49;15.20;;;4.00;;
31584;SDS011;18191;51.288;12.390;2024-01-06T05:30:39;6.80;;;3.50;;
31584;SDS011;18191;51.288;12.390;2024-01-06T05:35:29;11.95;;;5.10;;
31584;SDS011;18191;51.288;12.390;2024-01-06T05:40:20;14.33;;;3.90;;
31584;SDS011;18191;51.288;12.390;2024-01-06T05:45:10;14.47;;;4.30;;
31584;SDS011;18191;51.288;12.390;2024-01-06T05:50:02;12.60;;;4.30;;
31584;SDS011;18191;51.288;12.390;2024-01-06T05:54:53;13.00;;;3.83;;
31584;SDS011;18191;51.288;12.390;2024-01-06T05:59:43;15.27;;;4.05;;
31584;SDS011;18191;51.288;12.390;2024-01-06T06:04:33;11.20;;;4.07;;
31584;SDS011;18191;51.288;12.390;2024-01-06T06:09:24;7.10;;;3.63;;
31584;SDS011;18191;51.288;12.390;2024-01-06T06:14:14;9.75;;;3.58;;
31584;SDS011;18191;51.288;12.390;2024-01-06T06:19:04;9.95;;;3.50;;
31584;SDS011;18191;51.288;12.390;2024-01-06T06:23:54;12.83;;;3.50;;
31584;SDS011;18191;51.288;12.390;2024-01-06T06:28:45;18.20;;;4.80;;
31584;SDS011;18191;51.288;12.390;2024-01-06T06:33:35;15.15;;;4.40;;
31584;SDS011;18191;51.288;12.390;2024-01-06T06:38:26;14.77;;;3.83;;
31584;SDS011;18191;51.288;12.390;2024-01-06T06:43:16;8.70;;;4.10;;
31584;SDS011;18191;51.288;12.390;2024-01-06T06:48:06;11.73;;;4.07;;
31584;SDS011;18191;51.288;12.390;2024-01-06T06:52:57;8.17;;;3.87;;
31584;SDS011;18191;51.288;12.390;2024-01-06T06:57:47;8.63;;;3.83;;
31584;SDS011;18191;51.288;12.390;2024-01-06T07:02:37;10.03;;;3.93;;
31584;SDS011;18191;51.288;12.390;2024-01-06T07:07:28;8.93;;;3.40;;
31584;SDS011;18191;51.288;12.390;2024-01-06T07:12:18;18.60;;;4.90;;
31584;SDS011;18191;51.288;12.390;2024-01-06T07:17:08;8.47;;;3.73;;
31584;SDS011;18191;51.288;12.390;2024-01-06T07:21:59;9.95;;;4.53;;
31584;SDS011;18191;51.288;12.390;2024-01-06T07:26:49;7.90;;;4.27;;
31584;SDS011;18191;51.288;12.390;2024-01-06T07:31:39;16.48;;;3.80;;
31584;SDS011;18191;51.288;12.390;2024-01-06T07:36:30;16.50;;;4.32;;
31584;SDS011;18191;51.288;12.390;2024-01-06T07:41:21;18.97;;;4.20;;
31584;SDS011;18191;51.288;12.390;2024-01-06T07:46:11;9.30;;;4.00;;
31584;SDS011;18191;51.288;12.390;2024-01-06T07:51:01;11.33;;;3.90;;
31584;SDS011;18191;51.288;12.390;2024-01-06T08:00:43;15.00;;;4.47;;
31584;SDS011;18191;51.288;12.390;2024-01-06T08:05:33;14.47;;;4.60;;
31584;SDS011;18191;51.288;12.390;2024-01-06T08:10:24;18.30;;;4.63;;
31584;SDS011;18191;51.288;12.390;2024-01-06T08:15:14;8.03;;;3.23;;
31584;SDS011;18191;51.288;12.390;2024-01-06T08:20:05;16.90;;;4.97;;
31584;SDS011;18191;51.288;12.390;2024-01-06T08:24:56;20.58;;;5.85;;
31584;SDS011;18191;51.288;12.390;2024-01-06T08:29:46;21.17;;;5.23;;
31584;SDS011;18191;51.288;12.390;2024-01-06T08:34:36;9.33;;;4.70;;
31584;SDS011;18191;51.288;12.390;2024-01-06T08:39:27;19.03;;;6.07;;
31584;SDS011;18191;51.288;12.390;2024-01-06T08:44:17;16.23;;;6.15;;
31584;SDS011;18191;51.288;12.390;2024-01-06T08:49:07;21.25;;;6.03;;
31584;SDS011;18191;51.288;12.390;2024-01-06T08:53:58;14.47;;;6.17;;
31584;SDS011;18191;51.288;12.390;2024-01-06T08:58:48;18.73;;;6.83;;
31584;SDS011;18191;51.288;12.390;2024-01-06T09:03:38;23.27;;;6.57;;
31584;SDS011;18191;51.288;12.390;2024-01-06T09:08:29;15.67;;;6.93;;
31584;SDS011;18191;51.288;12.390;2024-01-06T09:13:19;30.03;;;7.60;;
31584;SDS011;18191;51.288;12.390;2024-01-06T09:18:11;22.20;;;8.43;;
31584;SDS011;18191;51.288;12.390;2024-01-06T09:23:02;24.95;;;9.18;;
31584;SDS011;18191;51.288;12.390;2024-01-06T09:27:53;27.07;;;8.80;;
31584;SDS011;18191;51.288;12.390;2024-01-06T09:32:43;21.90;;;8.80;;
31584;SDS011;18191;51.288;12.390;2024-01-06T09:37:33;19.53;;;8.03;;
31584;SDS011;18191;51.288;12.390;2024-01-06T09:42:24;27.87;;;9.03;;
31584;SDS011;18191;51.288;12.390;2024-01-06T09:47:14;21.53;;;7.83;;
31584;SDS011;18191;51.288;12.390;2024-01-06T09:52:10;16.92;;;7.07;;
31584;SDS011;18191;51.288;12.390;2024-01-06T09:57:06;34.77;;;13.80;;
31584;SDS011;18191;51.288;12.390;2024-01-06T10:01:57;35.47;;;14.60;;
31584;SDS011;18191;51.288;12.390;2024-01-06T10:06:47;26.70;;;10.88;;
31584;SDS011;18191;51.288;12.390;2024-01-06T10:11:37;29.00;;;10.83;;
31584;SDS011;18191;51.288;12.390;2024-01-06T10:16:30;34.53;;;10.93;;
31584;SDS011;18191;51.288;12.390;2024-01-06T10:21:21;30.73;;;11.13;;
31584;SDS011;18191;51.288;12.390;2024-01-06T10:31:03;18.40;;;7.30;;
31584;SDS011;18191;51.288;12.390;2024-01-06T10:35:53;14.67;;;6.63;;
31584;SDS011;18191;51.288;12.390;2024-01-06T10:41:01;20.70;;;7.18;;
31584;SDS011;18191;51.288;12.390;2024-01-06T10:45:57;20.70;;;6.30;;
31584;SDS011;18191;51.288;12.390;2024-01-06T10:50:49;21.02;;;7.13;;
31584;SDS011;18191;51.288;12.390;2024-01-06T10:55:40;29.15;;;8.00;;
31584;SDS011;18191;51.288;12.390;2024-01-06T11:00:31;18.92;;;7.95;;
31584;SDS011;18191;51.288;12.390;2024-01-06T11:05:21;17.17;;;7.77;;
31584;SDS011;18191;51.288;12.390;2024-01-06T11:10:16;22.63;;;9.70;;
31584;SDS011;18191;51.288;12.390;2024-01-06T11:15:08;25.67;;;7.38;;
31584;SDS011;18191;51.288;12.390;2024-01-06T11:20:04;17.47;;;7.83;;
31584;SDS011;18191;51.288;12.390;2024-01-06T11:24:56;20.98;;;7.05;;
31584;SDS011;18191;51.288;12.390;2024-01-06T11:29:53;17.45;;;7.45;;
31584;SDS011;18191;51.288;12.390;2024-01-06T11:34:46;15.45;;;6.93;;
31584;SDS011;18191;51.288;12.390;2024-01-06T11:39:40;12.10;;;6.43;;
31584;SDS011;18191;51.288;12.390;2024-01-06T11:44:36;19.85;;;7.68;;
31584;SDS011;18191;51.288;12.390;2024-01-06T11:49:27;16.20;;;6.85;;
31584;SDS011;18191;51.288;12.390;2024-01-06T11:54:18;18.30;;;8.03;;
31584;SDS011;18191;51.288;12.390;2024-01-06T11:59:08;20.30;;;6.90;;
31584;SDS011;18191;51.288;12.390;2024-01-06T12:03:59;26.20;;;6.80;;
31584;SDS011;18191;51.288;12.390;2024-01-06T12:08:49;16.43;;;7.43;;
31584;SDS011;18191;51.288;12.390;2024-01-06T12:13:40;16.10;;;5.93;;
31584;SDS011;18191;51.288;12.390;2024-01-06T12:18:31;15.75;;;6.30;;
31584;SDS011;18191;51.288;12.390;2024-01-06T12:23:27;20.67;;;6.50;;
31584;SDS011;18191;51.288;12.390;2024-01-06T12:28:17;22.50;;;6.97;;
31584;SDS011;18191;51.288;12.390;2024-01-06T12:33:08;20.88;;;7.57;;
31584;SDS011;18191;51.288;12.390;2024-01-06T12:37:59;25.45;;;7.65;;
31584;SDS011;18191;51.288;12.390;2024-01-06T12:42:52;13.82;;;6.10;;
31584;SDS011;18191;51.288;12.390;2024-01-06T12:47:42;25.70;;;8.15;;
31584;SDS011;18191;51.288;12.390;2024-01-06T12:52:33;17.03;;;7.73;;
31584;SDS011;18191;51.288;12.390;2024-01-06T12:57:23;28.08;;;9.23;;
31584;SDS011;18191;51.288;12.390;2024-01-06T13:02:14;28.25;;;9.73;;
31584;SDS011;18191;51.288;12.390;2024-01-06T13:07:04;25.33;;;9.33;;
31584;SDS011;18191;51.288;12.390;2024-01-06T13:11:54;33.93;;;11.30;;
31584;SDS011;18191;51.288;12.390;2024-01-06T13:16:50;25.73;;;9.40;;
31584;SDS011;18191;51.288;12.390;2024-01-06T13:21:40;35.07;;;12.17;;
31584;SDS011;18191;51.288;12.390;2024-01-06T13:26:30;30.63;;;11.97;;
31584;SDS011;18191;51.288;12.390;2024-01-06T13:31:21;38.70;;;13.50;;
31584;SDS011;18191;51.288;12.390;2024-01-06T13:36:11;39.93;;;13.47;;
31584;SDS011;18191;51.288;12.390;2024-01-06T13:41:02;38.63;;;13.30;;
31584;SDS011;18191;51.288;12.390;2024-01-06T13:45:53;44.90;;;15.63;;
31584;SDS011;18191;51.288;12.390;2024-01-06T13:50:43;36.80;;;15.00;;
31584;SDS011;18191;51.288;12.390;2024-01-06T14:00:25;45.88;;;14.65;;
31584;SDS011;18191;51.288;12.390;2024-01-06T14:05:16;51.00;;;16.03;;
31584;SDS011;18191;51.288;12.390;2024-01-06T14:10:07;56.33;;;16.00;;
31584;SDS011;18191;51.288;12.390;2024-01-06T14:14:58;47.47;;;15.65;;
31584;SDS011;18191;51.288;12.390;2024-01-06T14:19:48;50.20;;;16.07;;
31584;SDS011;18191;51.288;12.390;2024-01-06T14:24:38;60.05;;;17.77;;
31584;SDS011;18191;51.288;12.390;2024-01-06T14:29:29;53.00;;;16.36;;
31584;SDS011;18191;51.288;12.390;2024-01-06T14:34:20;53.17;;;17.25;;
31584;SDS011;18191;51.288;12.390;2024-01-06T14:39:10;57.60;;;16.65;;
31584;SDS011;18191;51.288;12.390;2024-01-06T14:44:00;67.63;;;16.77;;
31584;SDS011;18191;51.288;12.390;2024-01-06T14:48:51;63.87;;;19.97;;
31584;SDS011;18191;51.288;12.390;2024-01-06T14:53:42;66.93;;;19.48;;
31584;SDS011;18191;51.288;12.390;2024-01-06T14:58:32;65.90;;;20.63;;
31584;SDS011;18191;51.288;12.390;2024-01-06T15:03:23;85.70;;;21.88;;
31584;SDS011;18191;51.288;12.390;2024-01-06T15:08:13;93.53;;;23.37;;
31584;SDS011;18191;51.288;12.390;2024-01-06T15:13:03;84.20;;;22.77;;
31584;SDS011;18191;51.288;12.390;2024-01-06T15:17:54;108.00;;;23.40;;
31584;SDS011;18191;51.288;12.390;2024-01-06T15:22:44;93.12;;;24.36;;
31584;SDS011;18191;51.288;12.390;2024-01-06T15:27:34;80.07;;;23.95;;
31584;SDS011;18191;51.288;12.390;2024-01-06T15:32:25;84.20;;;24.20;;
31584;SDS011;18191;51.288;12.390;2024-01-06T15:37:15;89.45;;;22.52;;
31584;SDS011;18191;51.288;12.390;2024-01-06T15:42:05;99.57;;;24.40;;
31584;SDS011;18191;51.288;12.390;2024-01-06T15:46:56;97.75;;;24.85;;
31584;SDS011;18191;51.288;12.390;2024-01-06T15:51:46;116.57;;;24.57;;
31584;SDS011;18191;51.288;12.390;2024-01-06T15:56:37;109.87;;;27.57;;
31584;SDS011;18191;51.288;12.390;2024-01-06T16:01:27;125.53;;;27.50;;
31584;SDS011;18191;51.288;12.390;2024-01-06T16:06:18;127.45;;;26.73;;
31584;SDS011;18191;51.288;12.390;2024-01-06T16:11:09;115.00;;;27.33;;
31584;SDS011;18191;51.288;12.390;2024-01-06T16:16:01;100.67;;;23.53;;
31584;SDS011;18191;51.288;12.390;2024-01-06T16:20:51;109.63;;;23.83;;
31584;SDS011;18191;51.288;12.390;2024-01-06T16:25:44;97.20;;;22.00;;
31584;SDS011;18191;51.288;12.390;2024-01-06T16:30:35;107.43;;;22.05;;
31584;SDS011;18191;51.288;12.390;2024-01-06T16:35:25;93.53;;;22.77;;
31584;SDS011;18191;51.288;12.390;2024-01-06T16:40:18;106.10;;;23.10;;
31584;SDS011;18191;51.288;12.390;2024-01-06T16:45:09;112.65;;;24.10;;
31584;SDS011;18191;51.288;12.390;2024-01-06T16:49:59;127.07;;;27.30;;
31584;SDS011;18191;51.288;12.390;2024-01-06T16:54:50;142.57;;;25.43;;
31584;SDS011;18191;51.288;12.390;2024-01-06T16:59:41;115.77;;;25.93;;
31584;SDS011;18191;51.288;12.390;2024-01-06T17:04:32;116.60;;;26.70;;
31584;SDS011;18191;51.288;12.390;2024-01-06T17:09:24;120.07;;;26.07;;
31584;SDS011;18191;51.288;12.390;2024-01-06T17:14:14;124.60;;;28.63;;
31584;SDS011;18191;51.288;12.390;2024-01-06T17:19:05;126.22;;;27.02;;
31584;SDS011;18191;51.288;12.390;2024-01-06T17:23:55;149.38;;;27.10;;
31584;SDS011;18191;51.288;12.390;2024-01-06T17:28:45;120.03;;;26.80;;
31584;SDS011;18191;51.288;12.390;2024-01-06T17:33:36;127.17;;;25.63;;
31584;SDS011;18191;51.288;12.390;2024-01-06T17:38:26;136.23;;;28.50;;
31584;SDS011;18191;51.288;12.390;2024-01-06T17:43:17;136.60;;;28.70;;
31584;SDS011;18191;51.288;12.390;2024-01-06T17:48:07;147.17;;;28.50;;
31584;SDS011;18191;51.288;12.390;2024-01-06T17:52:57;151.23;;;26.47;;
31584;SDS011;18191;51.288;12.390;2024-01-06T17:57:48;165.33;;;26.63;;
31584;SDS011;18191;51.288;12.390;2024-01-06T18:02:38;139.20;;;28.63;;
31584;SDS011;18191;51.288;12.390;2024-01-06T18:07:30;137.53;;;28.50;;
31584;SDS011;18191;51.288;12.390;2024-01-06T18:12:20;118.97;;;25.40;;
31584;SDS011;18191;51.288;12.390;2024-01-06T18:17:11;143.07;;;30.97;;
31584;SDS011;18191;51.288;12.390;2024-01-06T18:22:01;123.45;;;26.90;;
31584;SDS011;18191;51.288;12.390;2024-01-06T18:26:51;117.97;;;24.33;;
31584;SDS011;18191;51.288;12.390;2024-01-06T18:31:41;131.37;;;26.87;;
31584;SDS011;18191;51.288;12.390;2024-01-06T18:36:32;131.50;;;24.35;;
31584;SDS011;18191;51.288;12.390;2024-01-06T18:41:22;130.50;;;26.27;;
31584;SDS011;18191;51.288;12.390;2024-01-06T18:46:12;80.27;;;19.60;;
31584;SDS011;18191;51.288;12.390;2024-01-06T18:51:03;124.80;;;27.33;;
31584;SDS011;18191;51.288;12.390;2024-01-06T18:55:53;120.43;;;25.42;;
31584;SDS011;18191;51.288;12.390;2024-01-06T19:00:43;132.70;;;27.10;;
31584;SDS011;18191;51.288;12.390;2024-01-06T19:05:34;120.53;;;26.17;;
31584;SDS011;18191;51.288;12.390;2024-01-06T19:15:16;138.73;;;26.35;;
31584;SDS011;18191;51.288;12.390;2024-01-06T19:20:06;115.97;;;25.63;;
31584;SDS011;18191;51.288;12.390;2024-01-06T19:24:56;142.23;;;28.03;;
31584;SDS011;18191;51.288;12.390;2024-01-06T19:29:47;126.97;;;27.27;;
31584;SDS011;18191;51.288;12.390;2024-01-06T19:34:37;132.23;;;28.23;;
31584;SDS011;18191;51.288;12.390;2024-01-06T19:39:28;121.53;;;25.93;;
31584;SDS011;18191;51.288;12.390;2024-01-06T19:44:18;123.95;;;26.27;;
31584;SDS011;18191;51.288;12.390;2024-01-06T19:49:09;130.90;;;27.92;;
31584;SDS011;18191;51.288;12.390;2024-01-06T19:53:59;111.70;;;26.77;;
31584;SDS011;18191;51.288;12.390;2024-01-06T19:58:49;74.18;;;18.48;;
31584;SDS011;18191;51.288;12.390;2024-01-06T20:03:40;106.90;;;24.50;;
31584;SDS011;18191;51.288;12.390;2024-01-06T20:08:30;107.97;;;24.33;;
31584;SDS011;18191;51.288;12.390;2024-01-06T20:13:22;115.27;;;25.73;;
31584;SDS011;18191;51.288;12.390;2024-01-06T20:18:12;120.35;;;26.80;;
31584;SDS011;18191;51.288;12.390;2024-01-06T20:23:03;103.73;;;25.20;;
31584;SDS011;18191;51.288;12.390;2024-01-06T20:27:53;129.25;;;27.02;;
31584;SDS011;18191;51.288;12.390;2024-01-06T20:32:50;126.00;;;24.83;;
31584;SDS011;18191;51.288;12.390;2024-01-06T20:37:40;111.73;;;24.57;;
31584;SDS011;18191;51.288;12.390;2024-01-06T20:42:30;122.45;;;27.65;;
31584;SDS011;18191;51.288;12.390;2024-01-06T20:47:21;117.00;;;28.87;;
31584;SDS011;18191;51.288;12.390;2024-01-06T20:52:11;92.07;;;24.52;;
31584;SDS011;18191;51.288;12.390;2024-01-06T20:57:01;87.03;;;24.50;;
31584;SDS011;18191;51.288;12.390;2024-01-06T21:01:52;96.27;;;24.03;;
31584;SDS011;18191;51.288;12.390;2024-01-06T21:06:42;86.40;;;22.37;;
31584;SDS011;18191;51.288;12.390;2024-01-06T21:11:32;81.93;;;22.43;;
31584;SDS011;18191;51.288;12.390;2024-01-06T21:16:23;112.83;;;25.60;;
31584;SDS011;18191;51.288;12.390;2024-01-06T21:21:13;97.23;;;24.20;;
31584;SDS011;18191;51.288;12.390;2024-01-06T21:26:05;105.90;;;24.43;;
31584;SDS011;18191;51.288;12.390;2024-01-06T21:30:55;100.03;;;23.30;;
31584;SDS011;18191;51.288;12.390;2024-01-06T21:35:46;114.07;;;25.97;;
31584;SDS011;18191;51.288;12.390;2024-01-06T21:40:36;91.03;;;23.52;;
31584;SDS011;18191;51.288;12.390;2024-01-06T21:45:26;107.47;;;24.57;;
31584;SDS011;18191;51.288;12.390;2024-01-06T21:50:17;115.50;;;24.80;;
31584;SDS011;18191;51.288;12.390;2024-01-06T21:55:07;102.57;;;24.07;;
31584;SDS011;18191;51.288;12.390;2024-01-06T21:59:58;106.35;;;22.90;;
31584;SDS011;18191;51.288;12.390;2024-01-06T22:04:48;93.77;;;24.33;;
31584;SDS011;18191;51.288;12.390;2024-01-06T22:09:38;95.13;;;23.23;;
31584;SDS011;18191;51.288;12.390;2024-01-06T22:14:29;86.20;;;22.10;;
31584;SDS011;18191;51.288;12.390;2024-01-06T22:19:19;105.03;;;23.90;;
31584;SDS011;18191;51.288;12.390;2024-01-06T22:24:09;90.88;;;25.05;;
31584;SDS011;18191;51.288;12.390;2024-01-06T22:29:00;83.35;;;20.95;;
31584;SDS011;18191;51.288;12.390;2024-01-06T22:33:50;90.40;;;24.00;;
31584;SDS011;18191;51.288;12.390;2024-01-06T22:38:40;90.17;;;21.70;;
31584;SDS011;18191;51.288;12.390;2024-01-06T22:43:31;72.70;;;19.67;;
31584;SDS011;18191;51.288;12.390;2024-01-06T22:48:21;100.47;;;24.33;;
31584;SDS011;18191;51.288;12.390;2024-01-06T22:53:11;114.57;;;22.30;;
31584;SDS011;18191;51.288;12.390;2024-01-06T22:58:01;70.87;;;20.43;;
31584;SDS011;18191;51.288;12.390;2024-01-06T23:02:52;71.17;;;19.97;;
31584;SDS011;18191;51.288;12.390;2024-01-06T23:07:42;63.30;;;19.77;;
31584;SDS011;18191;51.288;12.390;2024-01-06T23:12:33;66.77;;;20.00;;
31584;SDS011;18191;51.288;12.390;2024-01-06T23:17:23;59.42;;;18.02;;
31584;SDS011;18191;51.288;12.390;2024-01-06T23:22:13;66.32;;;20.05;;
31584;SDS011;18191;51.288;12.390;2024-01-06T23:27:04;75.50;;;22.00;;
31584;SDS011;18191;51.288;12.390;2024-01-06T23:31:54;76.80;;;20.67;;
31584;SDS011;18191;51.288;12.390;2024-01-06T23:36:44;69.43;;;20.48;;
31584;SDS011;18191;51.288;12.390;2024-01-06T23:41:35;58.53;;;17.80;;
31584;SDS011;18191;51.288;12.390;2024-01-06T23:46:25;54.10;;;16.73;;
31584;SDS011;18191;51.288;12.390;2024-01-06T23:51:16;62.30;;;17.83;;
31584;SDS011;18191;51.288;12.390;2024-01-06T23:56:06;53.42;;;16.75;;
